CNW2 weather

CLOSED Windermere Airport
Windermere, Ontario, Canada

Public forecast

Using degrees Celsius for public forecast. Weather courtesy of forecast.io.

METAR (pilot weather report)

Closest report is Muskoka Airport, 15.0 nm (27.7 km) SE. Retrieved 2019/09/17 05:00 UTC (16 minutes ago):

CYQA 170500Z AUTO 00000KT 9SM CLR 08/08 A3016 RMK SLP218

TAF (pilot weather forecast)

Forecast is more than 6 hours old.

Closest forecast is Muskoka Airport, 15.0 nm (27.7 km) SE. Retrieved 2019/09/16 20:00 UTC (9 hours ago):

TAF CYQA 161938Z 1620/1702 VRB03KT P6SM SCT100 RMK FCST BASED ON AUTO OBS. NXT FCST WILL BE ISSUED AT 171145Z